sensor_id;sensor_type;location;lat;lon;timestamp;P1;durP1;ratioP1;P2;durP2;ratioP2
13032;SDS011;6583;42.632;23.298;2023-03-23T00:01:55;6.03;;;4.77;;
13032;SDS011;6583;42.632;23.298;2023-03-23T00:04:22;4.90;;;4.07;;
13032;SDS011;6583;42.632;23.298;2023-03-23T00:06:52;4.30;;;3.83;;
13032;SDS011;6583;42.632;23.298;2023-03-23T00:09:19;4.43;;;4.03;;
13032;SDS011;6583;42.632;23.298;2023-03-23T00:11:48;5.30;;;3.83;;
13032;SDS011;6583;42.632;23.298;2023-03-23T00:14:16;5.60;;;4.00;;
13032;SDS011;6583;42.632;23.298;2023-03-23T00:16:47;4.40;;;4.00;;
13032;SDS011;6583;42.632;23.298;2023-03-23T00:19:16;5.40;;;4.10;;
13032;SDS011;6583;42.632;23.298;2023-03-23T00:21:44;4.60;;;3.70;;
13032;SDS011;6583;42.632;23.298;2023-03-23T00:24:13;4.53;;;4.00;;
13032;SDS011;6583;42.632;23.298;2023-03-23T00:26:42;6.03;;;4.30;;
13032;SDS011;6583;42.632;23.298;2023-03-23T00:29:12;4.83;;;4.23;;
13032;SDS011;6583;42.632;23.298;2023-03-23T00:31:41;5.17;;;4.13;;
13032;SDS011;6583;42.632;23.298;2023-03-23T00:34:12;5.00;;;4.20;;
13032;SDS011;6583;42.632;23.298;2023-03-23T00:36:43;4.60;;;3.77;;
13032;SDS011;6583;42.632;23.298;2023-03-23T00:39:10;3.90;;;3.50;;
13032;SDS011;6583;42.632;23.298;2023-03-23T00:41:38;4.13;;;3.73;;
13032;SDS011;6583;42.632;23.298;2023-03-23T00:44:05;4.17;;;3.63;;
13032;SDS011;6583;42.632;23.298;2023-03-23T00:46:33;4.20;;;3.80;;
13032;SDS011;6583;42.632;23.298;2023-03-23T00:49:09;6.40;;;4.80;;
13032;SDS011;6583;42.632;23.298;2023-03-23T00:51:37;4.97;;;4.47;;
13032;SDS011;6583;42.632;23.298;2023-03-23T00:54:04;5.03;;;3.80;;
13032;SDS011;6583;42.632;23.298;2023-03-23T00:56:30;4.23;;;3.70;;
13032;SDS011;6583;42.632;23.298;2023-03-23T00:58:59;4.60;;;3.83;;
13032;SDS011;6583;42.632;23.298;2023-03-23T01:01:25;6.17;;;4.50;;
13032;SDS011;6583;42.632;23.298;2023-03-23T01:03:52;6.37;;;4.47;;
13032;SDS011;6583;42.632;23.298;2023-03-23T01:06:25;5.60;;;4.67;;
13032;SDS011;6583;42.632;23.298;2023-03-23T01:08:53;6.30;;;4.97;;
13032;SDS011;6583;42.632;23.298;2023-03-23T01:11:21;5.83;;;4.60;;
13032;SDS011;6583;42.632;23.298;2023-03-23T01:13:48;6.97;;;5.53;;
13032;SDS011;6583;42.632;23.298;2023-03-23T01:16:16;7.53;;;5.63;;
13032;SDS011;6583;42.632;23.298;2023-03-23T01:18:43;8.97;;;5.57;;
13032;SDS011;6583;42.632;23.298;2023-03-23T01:21:11;7.17;;;5.43;;
13032;SDS011;6583;42.632;23.298;2023-03-23T01:23:40;7.60;;;5.70;;
13032;SDS011;6583;42.632;23.298;2023-03-23T01:26:07;7.40;;;5.50;;
13032;SDS011;6583;42.632;23.298;2023-03-23T01:28:35;6.07;;;5.30;;
13032;SDS011;6583;42.632;23.298;2023-03-23T01:31:03;10.30;;;5.40;;
13032;SDS011;6583;42.632;23.298;2023-03-23T01:33:32;10.07;;;7.43;;
13032;SDS011;6583;42.632;23.298;2023-03-23T01:36:02;9.70;;;6.60;;
13032;SDS011;6583;42.632;23.298;2023-03-23T01:38:30;7.53;;;6.13;;
13032;SDS011;6583;42.632;23.298;2023-03-23T01:40:57;8.43;;;6.37;;
13032;SDS011;6583;42.632;23.298;2023-03-23T01:43:23;8.53;;;6.80;;
13032;SDS011;6583;42.632;23.298;2023-03-23T01:45:50;9.47;;;6.83;;
13032;SDS011;6583;42.632;23.298;2023-03-23T01:48:18;8.43;;;7.00;;
13032;SDS011;6583;42.632;23.298;2023-03-23T01:50:51;9.27;;;7.70;;
13032;SDS011;6583;42.632;23.298;2023-03-23T01:53:22;11.03;;;7.77;;
13032;SDS011;6583;42.632;23.298;2023-03-23T01:55:51;10.40;;;7.83;;
13032;SDS011;6583;42.632;23.298;2023-03-23T01:58:21;11.83;;;8.93;;
13032;SDS011;6583;42.632;23.298;2023-03-23T02:00:52;11.43;;;8.80;;
13032;SDS011;6583;42.632;23.298;2023-03-23T02:03:20;12.23;;;9.23;;
13032;SDS011;6583;42.632;23.298;2023-03-23T02:05:48;11.30;;;9.50;;
13032;SDS011;6583;42.632;23.298;2023-03-23T02:08:17;12.60;;;8.97;;
13032;SDS011;6583;42.632;23.298;2023-03-23T02:10:44;12.70;;;9.07;;
13032;SDS011;6583;42.632;23.298;2023-03-23T02:13:11;11.63;;;8.87;;
13032;SDS011;6583;42.632;23.298;2023-03-23T02:15:43;12.23;;;9.23;;
13032;SDS011;6583;42.632;23.298;2023-03-23T02:18:15;13.70;;;9.40;;
13032;SDS011;6583;42.632;23.298;2023-03-23T02:21:06;11.57;;;8.93;;
13032;SDS011;6583;42.632;23.298;2023-03-23T02:23:52;11.87;;;9.67;;
13032;SDS011;6583;42.632;23.298;2023-03-23T02:26:34;12.33;;;9.30;;
13032;SDS011;6583;42.632;23.298;2023-03-23T02:29:12;13.93;;;9.50;;
13032;SDS011;6583;42.632;23.298;2023-03-23T02:32:10;12.83;;;9.00;;
13032;SDS011;6583;42.632;23.298;2023-03-23T02:34:45;13.90;;;9.90;;
13032;SDS011;6583;42.632;23.298;2023-03-23T02:37:16;15.63;;;9.87;;
13032;SDS011;6583;42.632;23.298;2023-03-23T02:39:47;12.33;;;9.47;;
13032;SDS011;6583;42.632;23.298;2023-03-23T02:42:18;16.17;;;10.23;;
13032;SDS011;6583;42.632;23.298;2023-03-23T02:44:49;15.10;;;10.60;;
13032;SDS011;6583;42.632;23.298;2023-03-23T02:47:19;14.10;;;10.30;;
13032;SDS011;6583;42.632;23.298;2023-03-23T02:49:50;13.80;;;10.57;;
13032;SDS011;6583;42.632;23.298;2023-03-23T02:52:21;16.33;;;11.17;;
13032;SDS011;6583;42.632;23.298;2023-03-23T02:54:50;15.57;;;10.87;;
13032;SDS011;6583;42.632;23.298;2023-03-23T02:57:19;15.47;;;11.37;;
13032;SDS011;6583;42.632;23.298;2023-03-23T02:59:47;15.03;;;10.90;;
13032;SDS011;6583;42.632;23.298;2023-03-23T03:02:14;16.37;;;11.20;;
13032;SDS011;6583;42.632;23.298;2023-03-23T03:04:45;15.50;;;11.27;;
13032;SDS011;6583;42.632;23.298;2023-03-23T03:10:15;15.57;;;10.97;;
13032;SDS011;6583;42.632;23.298;2023-03-23T03:12:46;13.57;;;10.53;;
13032;SDS011;6583;42.632;23.298;2023-03-23T03:15:24;14.43;;;10.90;;
13032;SDS011;6583;42.632;23.298;2023-03-23T03:17:58;15.33;;;10.83;;
13032;SDS011;6583;42.632;23.298;2023-03-23T03:20:29;13.80;;;10.53;;
13032;SDS011;6583;42.632;23.298;2023-03-23T03:23:00;13.97;;;10.53;;
13032;SDS011;6583;42.632;23.298;2023-03-23T03:25:28;13.80;;;10.80;;
13032;SDS011;6583;42.632;23.298;2023-03-23T03:27:55;13.13;;;10.43;;
13032;SDS011;6583;42.632;23.298;2023-03-23T03:30:23;12.87;;;10.17;;
13032;SDS011;6583;42.632;23.298;2023-03-23T03:32:55;13.57;;;10.20;;
13032;SDS011;6583;42.632;23.298;2023-03-23T03:35:25;13.20;;;9.87;;
13032;SDS011;6583;42.632;23.298;2023-03-23T03:37:52;13.00;;;10.00;;
13032;SDS011;6583;42.632;23.298;2023-03-23T03:40:21;12.33;;;10.00;;
13032;SDS011;6583;42.632;23.298;2023-03-23T03:42:49;12.20;;;9.30;;
13032;SDS011;6583;42.632;23.298;2023-03-23T03:45:17;14.80;;;9.50;;
13032;SDS011;6583;42.632;23.298;2023-03-23T03:47:45;12.47;;;9.87;;
13032;SDS011;6583;42.632;23.298;2023-03-23T03:50:12;11.63;;;9.20;;
13032;SDS011;6583;42.632;23.298;2023-03-23T03:52:39;11.97;;;8.90;;
13032;SDS011;6583;42.632;23.298;2023-03-23T03:55:06;12.20;;;9.30;;
13032;SDS011;6583;42.632;23.298;2023-03-23T03:57:35;12.07;;;8.80;;
13032;SDS011;6583;42.632;23.298;2023-03-23T04:00:03;12.67;;;8.83;;
13032;SDS011;6583;42.632;23.298;2023-03-23T04:02:39;12.47;;;8.63;;
13032;SDS011;6583;42.632;23.298;2023-03-23T04:05:07;12.43;;;9.17;;
13032;SDS011;6583;42.632;23.298;2023-03-23T04:07:35;12.07;;;8.43;;
13032;SDS011;6583;42.632;23.298;2023-03-23T04:10:05;11.03;;;8.40;;
13032;SDS011;6583;42.632;23.298;2023-03-23T04:12:33;12.83;;;9.03;;
13032;SDS011;6583;42.632;23.298;2023-03-23T04:15:01;13.70;;;8.87;;
13032;SDS011;6583;42.632;23.298;2023-03-23T04:17:28;12.37;;;8.37;;
13032;SDS011;6583;42.632;23.298;2023-03-23T04:19:55;10.80;;;9.00;;
13032;SDS011;6583;42.632;23.298;2023-03-23T04:22:24;11.47;;;8.40;;
13032;SDS011;6583;42.632;23.298;2023-03-23T04:24:55;11.90;;;8.80;;
13032;SDS011;6583;42.632;23.298;2023-03-23T04:27:23;11.17;;;8.77;;
13032;SDS011;6583;42.632;23.298;2023-03-23T04:29:53;10.70;;;7.83;;
13032;SDS011;6583;42.632;23.298;2023-03-23T04:32:21;12.73;;;8.50;;
13032;SDS011;6583;42.632;23.298;2023-03-23T04:34:50;10.37;;;8.47;;
13032;SDS011;6583;42.632;23.298;2023-03-23T04:37:16;15.00;;;8.90;;
13032;SDS011;6583;42.632;23.298;2023-03-23T04:39:43;11.50;;;8.37;;
13032;SDS011;6583;42.632;23.298;2023-03-23T04:42:10;12.50;;;8.90;;
13032;SDS011;6583;42.632;23.298;2023-03-23T04:44:39;21.97;;;9.20;;
13032;SDS011;6583;42.632;23.298;2023-03-23T04:47:07;14.00;;;8.87;;
13032;SDS011;6583;42.632;23.298;2023-03-23T04:49:35;11.77;;;8.70;;
13032;SDS011;6583;42.632;23.298;2023-03-23T04:52:02;14.83;;;9.33;;
13032;SDS011;6583;42.632;23.298;2023-03-23T04:54:29;12.53;;;8.90;;
13032;SDS011;6583;42.632;23.298;2023-03-23T04:56:56;10.90;;;8.90;;
13032;SDS011;6583;42.632;23.298;2023-03-23T04:59:23;15.50;;;9.83;;
13032;SDS011;6583;42.632;23.298;2023-03-23T05:01:52;12.23;;;8.93;;
13032;SDS011;6583;42.632;23.298;2023-03-23T05:04:21;14.17;;;9.50;;
13032;SDS011;6583;42.632;23.298;2023-03-23T05:06:51;11.73;;;8.27;;
13032;SDS011;6583;42.632;23.298;2023-03-23T05:09:18;12.20;;;9.90;;
13032;SDS011;6583;42.632;23.298;2023-03-23T05:11:46;14.60;;;11.40;;
13032;SDS011;6583;42.632;23.298;2023-03-23T05:14:12;16.13;;;12.27;;
13032;SDS011;6583;42.632;23.298;2023-03-23T05:16:39;13.33;;;10.83;;
13032;SDS011;6583;42.632;23.298;2023-03-23T05:19:05;12.90;;;9.90;;
13032;SDS011;6583;42.632;23.298;2023-03-23T05:21:33;11.70;;;9.80;;
13032;SDS011;6583;42.632;23.298;2023-03-23T05:24:01;12.47;;;9.60;;
13032;SDS011;6583;42.632;23.298;2023-03-23T05:26:34;11.00;;;8.67;;
13032;SDS011;6583;42.632;23.298;2023-03-23T05:29:04;10.13;;;8.47;;
13032;SDS011;6583;42.632;23.298;2023-03-23T05:31:30;12.30;;;8.97;;
13032;SDS011;6583;42.632;23.298;2023-03-23T05:33:57;13.47;;;9.73;;
13032;SDS011;6583;42.632;23.298;2023-03-23T05:36:24;16.57;;;9.77;;
13032;SDS011;6583;42.632;23.298;2023-03-23T05:38:50;16.30;;;12.03;;
13032;SDS011;6583;42.632;23.298;2023-03-23T05:41:18;16.77;;;12.77;;
13032;SDS011;6583;42.632;23.298;2023-03-23T05:43:46;24.20;;;16.43;;
13032;SDS011;6583;42.632;23.298;2023-03-23T05:46:12;21.40;;;14.80;;
13032;SDS011;6583;42.632;23.298;2023-03-23T05:48:39;18.03;;;13.63;;
13032;SDS011;6583;42.632;23.298;2023-03-23T05:51:06;17.87;;;13.13;;
13032;SDS011;6583;42.632;23.298;2023-03-23T05:53:33;41.97;;;28.47;;
13032;SDS011;6583;42.632;23.298;2023-03-23T05:56:00;45.33;;;30.93;;
13032;SDS011;6583;42.632;23.298;2023-03-23T05:58:29;43.07;;;27.50;;
13032;SDS011;6583;42.632;23.298;2023-03-23T06:00:56;43.77;;;29.47;;
13032;SDS011;6583;42.632;23.298;2023-03-23T06:03:23;39.63;;;28.27;;
13032;SDS011;6583;42.632;23.298;2023-03-23T06:05:50;45.57;;;31.73;;
13032;SDS011;6583;42.632;23.298;2023-03-23T06:08:17;50.37;;;34.43;;
13032;SDS011;6583;42.632;23.298;2023-03-23T06:10:44;49.07;;;31.40;;
13032;SDS011;6583;42.632;23.298;2023-03-23T06:13:10;51.23;;;31.93;;
13032;SDS011;6583;42.632;23.298;2023-03-23T06:15:39;44.23;;;30.40;;
13032;SDS011;6583;42.632;23.298;2023-03-23T06:18:05;42.03;;;30.50;;
13032;SDS011;6583;42.632;23.298;2023-03-23T06:20:32;45.90;;;32.40;;
13032;SDS011;6583;42.632;23.298;2023-03-23T06:23:00;50.93;;;32.80;;
13032;SDS011;6583;42.632;23.298;2023-03-23T06:25:28;42.97;;;31.43;;
13032;SDS011;6583;42.632;23.298;2023-03-23T06:27:55;41.97;;;30.90;;
13032;SDS011;6583;42.632;23.298;2023-03-23T06:30:21;38.23;;;28.03;;
13032;SDS011;6583;42.632;23.298;2023-03-23T06:32:49;42.23;;;30.10;;
13032;SDS011;6583;42.632;23.298;2023-03-23T06:35:17;42.20;;;28.90;;
13032;SDS011;6583;42.632;23.298;2023-03-23T06:37:44;45.63;;;30.13;;
13032;SDS011;6583;42.632;23.298;2023-03-23T06:40:11;42.23;;;30.37;;
13032;SDS011;6583;42.632;23.298;2023-03-23T06:42:38;42.47;;;30.83;;
13032;SDS011;6583;42.632;23.298;2023-03-23T06:45:05;46.23;;;30.97;;
13032;SDS011;6583;42.632;23.298;2023-03-23T06:47:32;45.07;;;32.13;;
13032;SDS011;6583;42.632;23.298;2023-03-23T06:50:01;44.00;;;31.70;;
13032;SDS011;6583;42.632;23.298;2023-03-23T06:52:28;39.60;;;29.77;;
13032;SDS011;6583;42.632;23.298;2023-03-23T06:54:54;41.60;;;30.40;;
13032;SDS011;6583;42.632;23.298;2023-03-23T06:57:21;42.10;;;30.77;;
13032;SDS011;6583;42.632;23.298;2023-03-23T06:59:48;42.70;;;28.90;;
13032;SDS011;6583;42.632;23.298;2023-03-23T07:02:14;41.33;;;29.67;;
13032;SDS011;6583;42.632;23.298;2023-03-23T07:04:42;43.40;;;30.13;;
13032;SDS011;6583;42.632;23.298;2023-03-23T07:07:10;40.60;;;28.37;;
13032;SDS011;6583;42.632;23.298;2023-03-23T07:09:39;40.10;;;30.33;;
13032;SDS011;6583;42.632;23.298;2023-03-23T07:12:06;45.93;;;30.63;;
13032;SDS011;6583;42.632;23.298;2023-03-23T07:14:33;38.93;;;28.13;;
13032;SDS011;6583;42.632;23.298;2023-03-23T07:17:00;41.77;;;28.93;;
13032;SDS011;6583;42.632;23.298;2023-03-23T07:19:26;37.73;;;28.70;;
13032;SDS011;6583;42.632;23.298;2023-03-23T07:21:53;43.17;;;29.63;;
13032;SDS011;6583;42.632;23.298;2023-03-23T07:24:23;41.53;;;29.90;;
13032;SDS011;6583;42.632;23.298;2023-03-23T07:26:50;37.97;;;29.80;;
13032;SDS011;6583;42.632;23.298;2023-03-23T07:29:17;38.63;;;29.07;;
13032;SDS011;6583;42.632;23.298;2023-03-23T07:31:43;37.97;;;29.07;;
13032;SDS011;6583;42.632;23.298;2023-03-23T07:34:11;40.57;;;29.53;;
13032;SDS011;6583;42.632;23.298;2023-03-23T07:36:37;33.60;;;27.80;;
13032;SDS011;6583;42.632;23.298;2023-03-23T07:39:04;40.37;;;29.17;;
13032;SDS011;6583;42.632;23.298;2023-03-23T07:41:32;36.17;;;26.30;;
13032;SDS011;6583;42.632;23.298;2023-03-23T07:43:59;29.23;;;22.00;;
13032;SDS011;6583;42.632;23.298;2023-03-23T07:46:26;25.20;;;19.83;;
13032;SDS011;6583;42.632;23.298;2023-03-23T07:48:52;17.73;;;14.17;;
13032;SDS011;6583;42.632;23.298;2023-03-23T07:51:19;20.27;;;16.50;;
13032;SDS011;6583;42.632;23.298;2023-03-23T07:53:46;24.90;;;19.13;;
13032;SDS011;6583;42.632;23.298;2023-03-23T07:56:13;23.43;;;17.07;;
13032;SDS011;6583;42.632;23.298;2023-03-23T07:58:46;27.43;;;19.67;;
13032;SDS011;6583;42.632;23.298;2023-03-23T08:01:13;30.80;;;21.23;;
13032;SDS011;6583;42.632;23.298;2023-03-23T08:03:40;27.03;;;20.90;;
13032;SDS011;6583;42.632;23.298;2023-03-23T08:06:07;25.50;;;20.27;;
13032;SDS011;6583;42.632;23.298;2023-03-23T08:08:34;27.93;;;20.80;;
13032;SDS011;6583;42.632;23.298;2023-03-23T08:11:03;26.70;;;20.37;;
13032;SDS011;6583;42.632;23.298;2023-03-23T08:13:30;26.73;;;19.20;;
13032;SDS011;6583;42.632;23.298;2023-03-23T08:15:59;24.80;;;19.27;;
13032;SDS011;6583;42.632;23.298;2023-03-23T08:18:28;25.03;;;18.77;;
13032;SDS011;6583;42.632;23.298;2023-03-23T08:20:55;28.00;;;20.07;;
13032;SDS011;6583;42.632;23.298;2023-03-23T08:23:21;27.00;;;21.33;;
13032;SDS011;6583;42.632;23.298;2023-03-23T08:25:48;31.87;;;22.37;;
13032;SDS011;6583;42.632;23.298;2023-03-23T08:28:15;28.77;;;20.93;;
13032;SDS011;6583;42.632;23.298;2023-03-23T08:30:41;27.33;;;22.37;;
13032;SDS011;6583;42.632;23.298;2023-03-23T08:33:09;23.97;;;18.07;;
13032;SDS011;6583;42.632;23.298;2023-03-23T08:35:37;14.73;;;12.83;;
13032;SDS011;6583;42.632;23.298;2023-03-23T08:38:03;13.43;;;10.30;;
13032;SDS011;6583;42.632;23.298;2023-03-23T08:40:30;12.33;;;9.47;;
13032;SDS011;6583;42.632;23.298;2023-03-23T08:42:57;13.13;;;10.83;;
13032;SDS011;6583;42.632;23.298;2023-03-23T08:45:24;10.80;;;8.13;;
13032;SDS011;6583;42.632;23.298;2023-03-23T08:47:52;10.63;;;8.30;;
13032;SDS011;6583;42.632;23.298;2023-03-23T08:50:22;10.67;;;9.57;;
13032;SDS011;6583;42.632;23.298;2023-03-23T08:52:50;8.83;;;7.93;;
13032;SDS011;6583;42.632;23.298;2023-03-23T08:55:18;8.83;;;7.93;;
13032;SDS011;6583;42.632;23.298;2023-03-23T08:57:45;9.57;;;8.30;;
13032;SDS011;6583;42.632;23.298;2023-03-23T09:00:12;10.43;;;8.50;;
13032;SDS011;6583;42.632;23.298;2023-03-23T09:02:43;11.43;;;8.47;;
13032;SDS011;6583;42.632;23.298;2023-03-23T09:05:12;11.83;;;8.80;;
13032;SDS011;6583;42.632;23.298;2023-03-23T09:07:41;10.37;;;9.00;;
13032;SDS011;6583;42.632;23.298;2023-03-23T09:10:09;9.93;;;8.63;;
13032;SDS011;6583;42.632;23.298;2023-03-23T09:12:36;10.67;;;9.33;;
13032;SDS011;6583;42.632;23.298;2023-03-23T09:15:03;10.97;;;8.63;;
13032;SDS011;6583;42.632;23.298;2023-03-23T09:17:34;9.83;;;8.83;;
13032;SDS011;6583;42.632;23.298;2023-03-23T09:20:01;10.80;;;9.17;;
13032;SDS011;6583;42.632;23.298;2023-03-23T09:22:32;11.70;;;8.87;;
13032;SDS011;6583;42.632;23.298;2023-03-23T09:25:00;11.67;;;9.23;;
13032;SDS011;6583;42.632;23.298;2023-03-23T09:27:27;10.60;;;8.77;;
13032;SDS011;6583;42.632;23.298;2023-03-23T09:29:53;9.50;;;8.50;;
13032;SDS011;6583;42.632;23.298;2023-03-23T09:32:20;10.40;;;8.70;;
13032;SDS011;6583;42.632;23.298;2023-03-23T09:34:48;10.63;;;8.53;;
13032;SDS011;6583;42.632;23.298;2023-03-23T09:37:16;9.47;;;8.47;;
13032;SDS011;6583;42.632;23.298;2023-03-23T09:39:43;10.33;;;8.23;;
13032;SDS011;6583;42.632;23.298;2023-03-23T09:42:18;9.20;;;8.30;;
13032;SDS011;6583;42.632;23.298;2023-03-23T09:44:59;11.83;;;9.07;;
13032;SDS011;6583;42.632;23.298;2023-03-23T09:47:37;9.97;;;8.80;;
13032;SDS011;6583;42.632;23.298;2023-03-23T09:50:10;10.97;;;8.60;;
13032;SDS011;6583;42.632;23.298;2023-03-23T09:52:41;11.90;;;8.63;;
13032;SDS011;6583;42.632;23.298;2023-03-23T09:55:13;10.77;;;8.90;;
13032;SDS011;6583;42.632;23.298;2023-03-23T09:57:47;10.77;;;8.80;;
13032;SDS011;6583;42.632;23.298;2023-03-23T10:00:20;10.43;;;9.07;;
13032;SDS011;6583;42.632;23.298;2023-03-23T10:02:52;10.37;;;8.37;;
13032;SDS011;6583;42.632;23.298;2023-03-23T10:05:30;10.37;;;9.03;;
13032;SDS011;6583;42.632;23.298;2023-03-23T10:08:00;11.73;;;9.00;;
13032;SDS011;6583;42.632;23.298;2023-03-23T10:10:31;9.77;;;8.77;;
13032;SDS011;6583;42.632;23.298;2023-03-23T10:13:09;10.13;;;8.87;;
13032;SDS011;6583;42.632;23.298;2023-03-23T10:15:45;11.07;;;9.00;;
13032;SDS011;6583;42.632;23.298;2023-03-23T10:18:15;9.97;;;8.77;;
13032;SDS011;6583;42.632;23.298;2023-03-23T10:20:48;12.03;;;8.53;;
13032;SDS011;6583;42.632;23.298;2023-03-23T10:23:32;10.27;;;8.73;;
13032;SDS011;6583;42.632;23.298;2023-03-23T10:26:08;11.03;;;8.30;;
13032;SDS011;6583;42.632;23.298;2023-03-23T10:28:56;9.67;;;8.33;;
13032;SDS011;6583;42.632;23.298;2023-03-23T10:31:27;9.77;;;7.30;;
13032;SDS011;6583;42.632;23.298;2023-03-23T10:33:59;8.83;;;7.93;;
13032;SDS011;6583;42.632;23.298;2023-03-23T10:36:31;8.83;;;7.87;;
13032;SDS011;6583;42.632;23.298;2023-03-23T10:39:05;9.57;;;8.37;;
13032;SDS011;6583;42.632;23.298;2023-03-23T10:41:43;11.50;;;8.20;;
13032;SDS011;6583;42.632;23.298;2023-03-23T10:44:13;9.20;;;7.83;;
13032;SDS011;6583;42.632;23.298;2023-03-23T10:46:45;8.67;;;7.77;;
13032;SDS011;6583;42.632;23.298;2023-03-23T10:49:19;9.37;;;8.27;;
13032;SDS011;6583;42.632;23.298;2023-03-23T10:51:57;9.50;;;8.30;;
13032;SDS011;6583;42.632;23.298;2023-03-23T10:54:32;10.00;;;8.10;;
13032;SDS011;6583;42.632;23.298;2023-03-23T10:57:11;8.97;;;7.63;;
13032;SDS011;6583;42.632;23.298;2023-03-23T10:59:41;9.80;;;7.77;;
13032;SDS011;6583;42.632;23.298;2023-03-23T11:02:13;9.07;;;7.70;;
13032;SDS011;6583;42.632;23.298;2023-03-23T11:04:45;9.27;;;8.30;;
13032;SDS011;6583;42.632;23.298;2023-03-23T11:07:20;9.00;;;8.10;;
13032;SDS011;6583;42.632;23.298;2023-03-23T11:09:54;9.20;;;7.90;;
13032;SDS011;6583;42.632;23.298;2023-03-23T11:12:23;9.90;;;8.67;;
13032;SDS011;6583;42.632;23.298;2023-03-23T11:15:02;9.40;;;8.23;;
13032;SDS011;6583;42.632;23.298;2023-03-23T11:17:40;8.27;;;7.40;;
13032;SDS011;6583;42.632;23.298;2023-03-23T11:20:11;9.77;;;8.53;;
13032;SDS011;6583;42.632;23.298;2023-03-23T11:22:38;9.40;;;8.50;;
13032;SDS011;6583;42.632;23.298;2023-03-23T11:25:09;9.20;;;8.27;;
13032;SDS011;6583;42.632;23.298;2023-03-23T11:27:39;10.80;;;8.80;;
13032;SDS011;6583;42.632;23.298;2023-03-23T11:30:10;9.77;;;8.77;;
13032;SDS011;6583;42.632;23.298;2023-03-23T11:32:46;9.20;;;8.17;;
13032;SDS011;6583;42.632;23.298;2023-03-23T11:35:15;9.57;;;8.40;;
13032;SDS011;6583;42.632;23.298;2023-03-23T11:37:46;11.97;;;8.63;;
13032;SDS011;6583;42.632;23.298;2023-03-23T11:40:15;9.23;;;8.13;;
13032;SDS011;6583;42.632;23.298;2023-03-23T11:42:44;10.17;;;7.53;;
13032;SDS011;6583;42.632;23.298;2023-03-23T11:45:14;10.10;;;8.20;;
13032;SDS011;6583;42.632;23.298;2023-03-23T11:47:46;9.23;;;7.90;;
13032;SDS011;6583;42.632;23.298;2023-03-23T11:50:22;10.30;;;7.57;;
13032;SDS011;6583;42.632;23.298;2023-03-23T11:52:55;9.17;;;7.50;;
13032;SDS011;6583;42.632;23.298;2023-03-23T11:55:30;9.93;;;7.47;;
13032;SDS011;6583;42.632;23.298;2023-03-23T11:58:06;7.87;;;7.13;;
13032;SDS011;6583;42.632;23.298;2023-03-23T12:00:39;8.10;;;7.20;;
13032;SDS011;6583;42.632;23.298;2023-03-23T12:03:30;8.37;;;6.90;;
13032;SDS011;6583;42.632;23.298;2023-03-23T12:06:11;8.73;;;7.60;;
13032;SDS011;6583;42.632;23.298;2023-03-23T12:08:47;11.20;;;7.97;;
13032;SDS011;6583;42.632;23.298;2023-03-23T12:11:22;9.33;;;7.90;;
13032;SDS011;6583;42.632;23.298;2023-03-23T12:13:57;9.27;;;8.17;;
13032;SDS011;6583;42.632;23.298;2023-03-23T12:16:39;9.33;;;7.40;;
13032;SDS011;6583;42.632;23.298;2023-03-23T12:19:27;8.23;;;7.00;;
13032;SDS011;6583;42.632;23.298;2023-03-23T12:22:01;8.37;;;7.57;;
13032;SDS011;6583;42.632;23.298;2023-03-23T12:24:43;8.77;;;7.30;;
13032;SDS011;6583;42.632;23.298;2023-03-23T12:27:19;9.70;;;8.50;;
13032;SDS011;6583;42.632;23.298;2023-03-23T12:29:58;9.70;;;7.10;;
13032;SDS011;6583;42.632;23.298;2023-03-23T12:32:48;7.73;;;6.63;;
13032;SDS011;6583;42.632;23.298;2023-03-23T12:35:28;7.97;;;6.97;;
13032;SDS011;6583;42.632;23.298;2023-03-23T12:38:20;7.30;;;6.60;;
13032;SDS011;6583;42.632;23.298;2023-03-23T12:41:02;8.20;;;6.73;;
13032;SDS011;6583;42.632;23.298;2023-03-23T12:43:38;7.73;;;6.63;;
13032;SDS011;6583;42.632;23.298;2023-03-23T12:46:14;7.77;;;6.97;;
13032;SDS011;6583;42.632;23.298;2023-03-23T12:48:54;7.93;;;7.10;;
13032;SDS011;6583;42.632;23.298;2023-03-23T12:51:29;8.10;;;6.97;;
13032;SDS011;6583;42.632;23.298;2023-03-23T12:54:02;8.47;;;7.53;;
13032;SDS011;6583;42.632;23.298;2023-03-23T12:56:36;8.57;;;7.33;;
13032;SDS011;6583;42.632;23.298;2023-03-23T12:59:10;7.27;;;6.57;;
13032;SDS011;6583;42.632;23.298;2023-03-23T13:01:42;8.90;;;8.00;;
13032;SDS011;6583;42.632;23.298;2023-03-23T13:04:14;8.37;;;6.80;;
13032;SDS011;6583;42.632;23.298;2023-03-23T13:06:46;9.33;;;7.43;;
13032;SDS011;6583;42.632;23.298;2023-03-23T13:09:15;7.60;;;6.83;;
13032;SDS011;6583;42.632;23.298;2023-03-23T13:11:46;8.07;;;7.00;;
13032;SDS011;6583;42.632;23.298;2023-03-23T13:14:18;8.30;;;6.70;;
13032;SDS011;6583;42.632;23.298;2023-03-23T13:16:55;8.00;;;7.10;;
13032;SDS011;6583;42.632;23.298;2023-03-23T13:19:32;7.97;;;7.20;;
13032;SDS011;6583;42.632;23.298;2023-03-23T13:22:21;8.63;;;7.17;;
13032;SDS011;6583;42.632;23.298;2023-03-23T13:24:54;7.57;;;6.30;;
13032;SDS011;6583;42.632;23.298;2023-03-23T13:27:24;7.07;;;6.37;;
13032;SDS011;6583;42.632;23.298;2023-03-23T13:29:53;7.17;;;6.47;;
13032;SDS011;6583;42.632;23.298;2023-03-23T13:32:20;7.57;;;6.77;;
13032;SDS011;6583;42.632;23.298;2023-03-23T13:34:49;7.80;;;7.00;;
13032;SDS011;6583;42.632;23.298;2023-03-23T13:37:22;7.83;;;6.27;;
13032;SDS011;6583;42.632;23.298;2023-03-23T13:39:51;7.80;;;7.00;;
13032;SDS011;6583;42.632;23.298;2023-03-23T13:42:22;8.03;;;6.97;;
13032;SDS011;6583;42.632;23.298;2023-03-23T13:44:57;7.80;;;6.50;;
13032;SDS011;6583;42.632;23.298;2023-03-23T13:47:38;9.50;;;7.43;;
13032;SDS011;6583;42.632;23.298;2023-03-23T13:50:24;8.70;;;7.00;;
13032;SDS011;6583;42.632;23.298;2023-03-23T13:52:55;7.33;;;6.63;;
13032;SDS011;6583;42.632;23.298;2023-03-23T13:58:24;7.70;;;6.90;;
13032;SDS011;6583;42.632;23.298;2023-03-23T14:01:01;7.30;;;6.60;;
13032;SDS011;6583;42.632;23.298;2023-03-23T14:03:38;7.83;;;6.63;;
13032;SDS011;6583;42.632;23.298;2023-03-23T14:06:11;7.80;;;6.70;;
13032;SDS011;6583;42.632;23.298;2023-03-23T14:08:41;8.90;;;6.20;;
13032;SDS011;6583;42.632;23.298;2023-03-23T14:11:14;6.83;;;6.07;;
13032;SDS011;6583;42.632;23.298;2023-03-23T14:13:45;6.97;;;6.07;;
13032;SDS011;6583;42.632;23.298;2023-03-23T14:16:18;7.83;;;6.20;;
13032;SDS011;6583;42.632;23.298;2023-03-23T14:18:49;6.83;;;6.13;;
13032;SDS011;6583;42.632;23.298;2023-03-23T14:21:25;8.23;;;6.07;;
13032;SDS011;6583;42.632;23.298;2023-03-23T14:23:59;7.63;;;6.53;;
13032;SDS011;6583;42.632;23.298;2023-03-23T14:26:27;8.43;;;6.07;;
13032;SDS011;6583;42.632;23.298;2023-03-23T14:28:54;7.47;;;6.43;;
13032;SDS011;6583;42.632;23.298;2023-03-23T14:31:22;7.77;;;6.23;;
13032;SDS011;6583;42.632;23.298;2023-03-23T14:33:52;8.43;;;6.97;;
13032;SDS011;6583;42.632;23.298;2023-03-23T14:36:21;7.23;;;6.53;;
13032;SDS011;6583;42.632;23.298;2023-03-23T14:38:59;8.50;;;7.33;;
13032;SDS011;6583;42.632;23.298;2023-03-23T14:41:28;7.47;;;6.67;;
13032;SDS011;6583;42.632;23.298;2023-03-23T14:43:56;7.93;;;7.17;;
13032;SDS011;6583;42.632;23.298;2023-03-23T14:46:26;10.53;;;7.03;;
13032;SDS011;6583;42.632;23.298;2023-03-23T14:48:54;8.63;;;7.17;;
13032;SDS011;6583;42.632;23.298;2023-03-23T14:51:22;8.67;;;7.13;;
13032;SDS011;6583;42.632;23.298;2023-03-23T14:53:49;7.80;;;7.00;;
13032;SDS011;6583;42.632;23.298;2023-03-23T14:56:20;8.47;;;7.67;;
13032;SDS011;6583;42.632;23.298;2023-03-23T14:58:53;7.03;;;6.30;;
13032;SDS011;6583;42.632;23.298;2023-03-23T15:01:20;7.93;;;6.83;;